Time;durP1;ratioP1;P1;durP2;ratioP2;P2;SDS_P1;SDS_P2;PMS_P1;PMS_P2;Temp;Humidity;BMP_temperature;BMP_pressure;BME280_temperature;BME280_humidity;BME280_pressure;Samples;Min_cycle;Max_cycle;Signal;HPM_P1;HPM_P2
2021/03/08 00:00:41;;;;;;;50.15;24.77;;;4.70;99.90;;;;;;5111664;28;20071;-67
2021/03/08 00:03:08;;;;;;;41.47;22.30;;;4.70;99.90;;;;;;5110717;28;20075;-67
2021/03/08 00:05:34;;;;;;;36.85;23.77;;;4.70;99.90;;;;;;5104061;28;20062;-67
2021/03/08 00:08:00;;;;;;;38.92;22.13;;;4.70;99.90;;;;;;5108700;28;20036;-67
2021/03/08 00:10:25;;;;;;;44.75;22.27;;;4.70;99.90;;;;;;5108363;28;20415;-67
2021/03/08 00:12:51;;;;;;;45.90;24.02;;;4.70;99.90;;;;;;5107758;28;20047;-66
2021/03/08 00:15:18;;;;;;;41.63;23.05;;;4.70;99.90;;;;;;5107147;28;20039;-67
2021/03/08 00:17:45;;;;;;;48.72;23.27;;;4.70;99.90;;;;;;5104532;28;20027;-67
2021/03/08 00:20:14;;;;;;;39.13;23.38;;;4.70;99.90;;;;;;5110973;28;20039;-67
2021/03/08 00:22:40;;;;;;;45.08;23.05;;;4.70;99.90;;;;;;5106733;28;20043;-67
2021/03/08 00:25:09;;;;;;;46.45;23.45;;;4.70;99.90;;;;;;5108168;28;20067;-67
2021/03/08 00:27:34;;;;;;;45.88;23.63;;;4.70;99.90;;;;;;5109296;28;20045;-67
2021/03/08 00:30:00;;;;;;;51.10;24.05;;;4.70;99.90;;;;;;5109227;28;20039;-67
2021/03/08 00:32:26;;;;;;;41.20;22.15;;;4.70;99.90;;;;;;5111186;28;20460;-67
2021/03/08 00:34:52;;;;;;;41.20;22.25;;;4.70;99.90;;;;;;5108310;28;20059;-67
2021/03/08 00:37:18;;;;;;;37.83;21.85;;;4.70;99.90;;;;;;5085346;28;20481;-67
2021/03/08 00:39:44;;;;;;;46.72;23.85;;;4.70;99.90;;;;;;5090383;28;20040;-67
2021/03/08 00:42:09;;;;;;;48.28;22.50;;;4.80;99.90;;;;;;5107731;28;20054;-67
2021/03/08 00:44:35;;;;;;;39.75;22.60;;;4.80;99.90;;;;;;5105005;28;20031;-67
2021/03/08 00:47:01;;;;;;;37.67;21.38;;;4.80;99.90;;;;;;5109399;28;20057;-67
2021/03/08 00:49:27;;;;;;;42.80;23.23;;;4.80;99.90;;;;;;5106798;28;20043;-67
2021/03/08 00:51:53;;;;;;;43.75;22.35;;;4.80;99.90;;;;;;5109422;28;20127;-67
2021/03/08 00:54:18;;;;;;;45.25;22.25;;;4.80;99.90;;;;;;5107732;28;20032;-67
2021/03/08 00:56:44;;;;;;;46.65;23.95;;;4.80;99.90;;;;;;5109440;28;20032;-67
2021/03/08 00:59:09;;;;;;;49.42;24.17;;;4.80;99.90;;;;;;5105952;28;20496;-67
2021/03/08 01:01:35;;;;;;;41.30;23.20;;;4.80;99.90;;;;;;5109150;28;20100;-67
2021/03/08 01:04:01;;;;;;;57.40;25.33;;;4.80;99.90;;;;;;5110311;28;20445;-67
2021/03/08 01:06:26;;;;;;;47.33;23.63;;;4.80;99.90;;;;;;5106209;28;20444;-67
2021/03/08 01:08:52;;;;;;;49.40;24.67;;;4.80;99.90;;;;;;5107695;28;20447;-67
2021/03/08 01:11:18;;;;;;;56.80;26.15;;;4.80;99.90;;;;;;5108726;28;20041;-67
2021/03/08 01:13:43;;;;;;;47.38;24.25;;;4.80;99.90;;;;;;5109630;28;20039;-67
2021/03/08 01:16:09;;;;;;;43.83;23.08;;;4.80;99.90;;;;;;5107178;28;20039;-67
2021/03/08 01:18:35;;;;;;;38.58;20.27;;;4.80;99.90;;;;;;5108536;28;20039;-67
2021/03/08 01:21:02;;;;;;;30.52;14.90;;;4.80;99.90;;;;;;5109496;28;20696;-67
2021/03/08 01:23:28;;;;;;;19.35;10.90;;;4.70;99.90;;;;;;5102916;28;20043;-67
2021/03/08 01:25:53;;;;;;;17.13;8.18;;;4.60;99.90;;;;;;5094112;28;20043;-67
2021/03/08 01:28:19;;;;;;;13.20;8.00;;;4.50;99.90;;;;;;5095730;28;20035;-67
2021/03/08 01:30:46;;;;;;;19.10;6.05;;;4.40;99.90;;;;;;5096433;28;20602;-67
2021/03/08 01:33:11;;;;;;;11.65;5.13;;;4.30;99.90;;;;;;5098828;28;20481;-67
2021/03/08 01:35:39;;;;;;;9.35;4.28;;;4.10;99.90;;;;;;5096629;28;20035;-67
2021/03/08 01:38:04;;;;;;;13.60;4.75;;;4.20;99.90;;;;;;5093600;28;20031;-67
2021/03/08 01:40:34;;;;;;;10.13;3.97;;;4.20;99.90;;;;;;5098068;28;20032;-66
2021/03/08 01:42:59;;;;;;;7.63;3.78;;;4.20;99.90;;;;;;5093216;28;20062;-66
2021/03/08 01:45:26;;;;;;;10.77;3.90;;;4.10;99.90;;;;;;5096308;28;20454;-67
2021/03/08 01:47:52;;;;;;;14.23;4.68;;;4.00;99.90;;;;;;5094355;28;20044;-67
2021/03/08 01:50:43;;;;;;;11.55;4.05;;;4.00;99.90;;;;;;5094626;28;20659;-67
2021/03/08 01:53:11;;;;;;;13.10;4.65;;;4.00;99.90;;;;;;5094932;28;20062;-67
2021/03/08 01:55:37;;;;;;;9.82;3.53;;;4.00;99.90;;;;;;5094896;28;20177;-67
2021/03/08 01:58:03;;;;;;;8.10;3.83;;;4.00;99.90;;;;;;5096590;28;20400;-67
2021/03/08 02:00:30;;;;;;;7.53;3.47;;;4.10;99.90;;;;;;5097290;28;20054;-67
2021/03/08 02:02:58;;;;;;;10.23;3.60;;;4.10;99.90;;;;;;5095788;28;20130;-66
2021/03/08 02:05:30;;;;;;;8.60;3.70;;;4.10;99.90;;;;;;5094086;28;20051;-66
2021/03/08 02:07:55;;;;;;;10.88;4.25;;;4.10;99.90;;;;;;5095749;28;20055;-67
2021/03/08 02:10:23;;;;;;;9.05;5.38;;;4.10;99.90;;;;;;5096282;28;21813;-67
2021/03/08 02:12:48;;;;;;;7.95;3.35;;;4.10;99.90;;;;;;5091691;28;20120;-67
2021/03/08 02:15:31;;;;;;;9.90;3.28;;;4.10;99.90;;;;;;5077510;28;20499;-67
2021/03/08 02:18:39;;;;;;;12.65;3.83;;;4.20;99.90;;;;;;5095679;28;20553;-67
2021/03/08 02:21:26;;;;;;;7.72;2.75;;;4.20;99.90;;;;;;5030536;28;22393;-67
2021/03/08 02:24:26;;;;;;;10.30;3.88;;;4.20;99.90;;;;;;5094108;28;20054;-67
2021/03/08 02:26:55;;;;;;;12.80;3.33;;;4.20;99.90;;;;;;5093023;28;20494;-67
2021/03/08 02:29:44;;;;;;;10.95;3.00;;;4.20;99.90;;;;;;5097854;28;20116;-67
2021/03/08 02:32:12;;;;;;;11.63;2.85;;;4.20;99.90;;;;;;5097517;28;20600;-67
2021/03/08 02:34:48;;;;;;;11.13;2.72;;;4.10;99.90;;;;;;5093560;28;20028;-66
2021/03/08 02:37:24;;;;;;;10.88;3.00;;;4.20;99.90;;;;;;5094163;28;20035;-67
2021/03/08 02:39:53;;;;;;;16.80;3.20;;;4.10;99.90;;;;;;5094632;28;20051;-67
2021/03/08 02:42:26;;;;;;;13.38;3.33;;;4.10;99.90;;;;;;5094840;28;20589;-67
2021/03/08 02:44:58;;;;;;;14.32;3.47;;;4.10;99.90;;;;;;5094482;28;20075;-66
2021/03/08 02:47:26;;;;;;;11.02;3.00;;;4.10;99.90;;;;;;5094230;28;20051;-67
2021/03/08 02:49:54;;;;;;;14.80;3.60;;;4.10;99.90;;;;;;5093754;28;20040;-67
2021/03/08 02:52:22;;;;;;;15.75;5.03;;;4.20;99.90;;;;;;5094638;28;20060;-67
2021/03/08 02:54:52;;;;;;;14.05;4.60;;;4.10;99.90;;;;;;5095959;28;20126;-67
2021/03/08 02:57:22;;;;;;;12.93;4.53;;;4.10;99.90;;;;;;5097967;28;20111;-67
2021/03/08 02:59:49;;;;;;;14.60;4.78;;;4.10;99.90;;;;;;5098177;28;20042;-67
2021/03/08 03:02:17;;;;;;;14.48;4.78;;;4.10;99.90;;;;;;5081540;28;20043;-67
2021/03/08 03:04:44;;;;;;;18.25;4.50;;;4.10;99.90;;;;;;5098588;28;20044;-66
2021/03/08 03:07:11;;;;;;;20.23;3.30;;;4.10;99.90;;;;;;5098050;28;20493;-67
2021/03/08 03:09:40;;;;;;;12.07;3.33;;;4.00;99.90;;;;;;5099754;28;20066;-67
2021/03/08 03:12:07;;;;;;;21.45;4.32;;;4.10;99.90;;;;;;5079594;28;20154;-67
2021/03/08 03:14:34;;;;;;;17.30;4.13;;;4.00;99.90;;;;;;5096863;28;20085;-67
2021/03/08 03:17:04;;;;;;;12.05;3.20;;;4.10;99.90;;;;;;5098911;28;20155;-67
2021/03/08 03:19:33;;;;;;;15.68;3.42;;;4.00;99.90;;;;;;5095976;28;20032;-67
2021/03/08 03:22:01;;;;;;;16.55;2.75;;;4.00;99.90;;;;;;5099437;28;20066;-67
2021/03/08 03:24:28;;;;;;;17.13;3.10;;;3.90;99.90;;;;;;5097990;28;20509;-67
2021/03/08 03:26:55;;;;;;;13.77;3.05;;;3.90;99.90;;;;;;5100010;28;20371;-66
2021/03/08 03:29:22;;;;;;;18.60;3.30;;;3.90;99.90;;;;;;5098411;28;20028;-67
2021/03/08 03:31:49;;;;;;;16.63;4.03;;;4.00;99.90;;;;;;5106237;27;20044;-67
2021/03/08 03:34:17;;;;;;;12.95;3.08;;;4.00;99.90;;;;;;5109157;28;20036;-67
2021/03/08 03:36:46;;;;;;;14.40;2.53;;;4.00;99.90;;;;;;5107632;28;20118;-67
2021/03/08 03:39:12;;;;;;;10.05;2.58;;;4.00;99.90;;;;;;5107596;28;20375;-67
2021/03/08 03:41:39;;;;;;;16.38;2.55;;;4.10;99.90;;;;;;5110008;28;20032;-67
2021/03/08 03:44:07;;;;;;;12.55;2.58;;;4.10;99.90;;;;;;5106179;28;20651;-67
2021/03/08 03:46:39;;;;;;;18.92;3.10;;;4.10;99.90;;;;;;5104738;28;20115;-67
2021/03/08 03:49:05;;;;;;;12.98;2.42;;;4.10;99.90;;;;;;5108045;28;20065;-67
2021/03/08 03:51:31;;;;;;;17.20;2.95;;;4.20;99.90;;;;;;5110604;28;20375;-67
2021/03/08 03:53:57;;;;;;;14.98;2.60;;;4.20;99.90;;;;;;5111116;28;20054;-67
2021/03/08 03:56:26;;;;;;;16.35;2.28;;;4.10;99.90;;;;;;5109170;28;20043;-67
2021/03/08 03:58:58;;;;;;;15.55;2.47;;;4.20;99.90;;;;;;5110843;28;20035;-67
2021/03/08 04:01:40;;;;;;;18.63;2.88;;;4.20;99.90;;;;;;5105260;28;20032;-67
2021/03/08 04:04:30;;;;;;;12.27;2.17;;;4.20;99.90;;;;;;5108446;28;20309;-67
2021/03/08 04:06:58;;;;;;;14.95;1.83;;;4.20;99.90;;;;;;5109345;28;20120;-67
2021/03/08 04:09:25;;;;;;;15.15;2.10;;;4.20;99.90;;;;;;5106685;28;20043;-67
2021/03/08 04:11:53;;;;;;;16.13;2.25;;;4.20;99.90;;;;;;5110722;28;20089;-67
2021/03/08 04:14:22;;;;;;;16.30;2.67;;;4.20;99.90;;;;;;5110142;28;20108;-67
2021/03/08 04:16:50;;;;;;;15.70;2.35;;;4.20;99.90;;;;;;5108063;28;20028;-67
2021/03/08 04:19:18;;;;;;;15.52;2.22;;;4.20;99.90;;;;;;5108037;28;20063;-67
2021/03/08 04:21:46;;;;;;;15.55;2.35;;;4.10;99.90;;;;;;5108902;28;20131;-67
2021/03/08 04:24:13;;;;;;;12.65;3.08;;;4.00;99.90;;;;;;5111277;28;20383;-67
2021/03/08 04:26:39;;;;;;;19.30;3.47;;;3.90;99.90;;;;;;5108506;28;20039;-66
2021/03/08 04:29:07;;;;;;;17.60;3.10;;;3.80;99.90;;;;;;5106929;28;20047;-67
2021/03/08 04:31:34;;;;;;;11.93;2.03;;;3.80;99.90;;;;;;5109590;28;20093;-67
2021/03/08 04:34:03;;;;;;;17.42;2.63;;;3.80;99.90;;;;;;5108060;28;20038;-66
2021/03/08 04:36:29;;;;;;;7.95;1.88;;;3.90;99.90;;;;;;5109032;28;20027;-67
2021/03/08 04:38:55;;;;;;;16.77;2.70;;;4.00;99.90;;;;;;5108742;28;20081;-67
2021/03/08 04:41:25;;;;;;;12.63;1.83;;;4.00;99.90;;;;;;5107955;28;20039;-67
2021/03/08 04:43:51;;;;;;;25.70;3.65;;;4.00;99.90;;;;;;5108109;28;20102;-67
2021/03/08 04:46:17;;;;;;;10.20;2.85;;;4.00;99.90;;;;;;5107581;28;20044;-67
2021/03/08 04:48:43;;;;;;;10.85;2.30;;;4.00;99.90;;;;;;5109670;28;20374;-67
2021/03/08 04:51:10;;;;;;;19.80;1.90;;;4.10;99.90;;;;;;5107458;28;20500;-67
2021/03/08 04:53:37;;;;;;;17.35;2.25;;;4.10;99.90;;;;;;5104979;28;20039;-67
2021/03/08 04:56:03;;;;;;;17.63;2.30;;;4.10;99.90;;;;;;5109565;28;20040;-67
2021/03/08 04:58:30;;;;;;;11.38;2.47;;;4.10;99.90;;;;;;5108466;28;20128;-67
2021/03/08 05:00:56;;;;;;;15.25;2.28;;;4.10;99.90;;;;;;5108913;28;20051;-67
2021/03/08 05:03:26;;;;;;;18.35;2.10;;;4.10;99.90;;;;;;5106331;28;20046;-67
2021/03/08 05:05:55;;;;;;;23.58;3.17;;;4.10;99.90;;;;;;5109655;28;20059;-67
2021/03/08 05:08:23;;;;;;;17.25;2.75;;;4.10;99.90;;;;;;5107397;28;21969;-67
2021/03/08 05:10:51;;;;;;;15.23;2.38;;;4.20;99.90;;;;;;5110132;28;20038;-67
2021/03/08 05:13:19;;;;;;;16.30;2.00;;;4.10;99.90;;;;;;5108863;28;20550;-67
2021/03/08 05:15:45;;;;;;;17.98;3.65;;;4.10;99.90;;;;;;5109716;28;20707;-67
2021/03/08 05:18:12;;;;;;;14.80;1.77;;;4.10;99.90;;;;;;5106743;28;20496;-67
2021/03/08 05:20:39;;;;;;;9.50;2.10;;;4.10;99.90;;;;;;5103310;28;20436;-67
2021/03/08 05:23:05;;;;;;;9.98;2.58;;;4.10;99.90;;;;;;5103160;28;20038;-67
2021/03/08 05:25:33;;;;;;;17.50;2.17;;;4.10;99.90;;;;;;5106208;28;20040;-66
2021/03/08 05:27:59;;;;;;;21.15;2.97;;;4.10;99.90;;;;;;5105537;28;21015;-66
2021/03/08 05:30:27;;;;;;;15.55;2.60;;;4.10;99.90;;;;;;5109651;27;20035;-67
2021/03/08 05:32:58;;;;;;;11.95;2.30;;;4.10;99.90;;;;;;5105735;27;20039;-67
2021/03/08 05:35:25;;;;;;;22.65;1.90;;;4.10;99.90;;;;;;5103853;28;20443;-66
2021/03/08 05:37:51;;;;;;;12.57;1.88;;;4.10;99.90;;;;;;5107626;28;20114;-67
2021/03/08 05:40:49;;;;;;;15.48;2.42;;;4.10;99.90;;;;;;5102532;27;20075;-67
2021/03/08 05:43:17;;;;;;;12.77;2.25;;;4.10;99.90;;;;;;5063496;28;20075;-67
2021/03/08 05:45:58;;;;;;;15.00;2.05;;;4.10;99.90;;;;;;5101488;28;20477;-67
2021/03/08 05:48:42;;;;;;;14.82;2.10;;;4.10;99.90;;;;;;5105595;28;20047;-67
2021/03/08 05:51:20;;;;;;;15.90;3.20;;;4.20;99.90;;;;;;5103565;28;20034;-67
2021/03/08 05:54:01;;;;;;;10.82;2.38;;;4.20;99.90;;;;;;5100059;28;20109;-67
2021/03/08 05:56:45;;;;;;;13.70;2.20;;;4.20;99.90;;;;;;5105764;28;20051;-67
2021/03/08 05:59:19;;;;;;;7.75;1.55;;;4.10;99.90;;;;;;5105877;28;20134;-67
2021/03/08 06:02:08;;;;;;;13.65;2.50;;;4.20;99.90;;;;;;5103725;28;20043;-67
2021/03/08 06:04:58;;;;;;;17.42;2.60;;;4.20;99.90;;;;;;5107238;28;20040;-67
2021/03/08 06:07:50;;;;;;;13.52;2.17;;;4.20;99.90;;;;;;5105076;28;20038;-67
2021/03/08 06:10:25;;;;;;;15.15;2.55;;;4.10;99.90;;;;;;5107278;28;20050;-67
2021/03/08 06:12:57;;;;;;;;;;;4.10;99.90;;;;;;5105784;28;20035;-67
2021/03/08 06:15:24;;;;;;;10.18;2.05;;;4.10;99.90;;;;;;5109159;28;19926;-67
2021/03/08 06:17:52;;;;;;;16.15;2.95;;;4.10;99.90;;;;;;5108876;28;20040;-67
2021/03/08 06:20:18;;;;;;;17.63;3.30;;;4.10;99.90;;;;;;5107528;28;20461;-67
2021/03/08 06:22:45;;;;;;;21.08;2.88;;;4.00;99.90;;;;;;5104434;28;20036;-67
2021/03/08 06:25:12;;;;;;;16.58;2.97;;;4.10;99.90;;;;;;5109348;28;20035;-67
2021/03/08 06:27:40;;;;;;;13.10;1.80;;;4.10;99.90;;;;;;5107768;28;20378;-67
2021/03/08 06:30:08;;;;;;;11.13;2.22;;;4.10;99.90;;;;;;5109284;28;20044;-67
2021/03/08 06:32:34;;;;;;;19.25;2.28;;;4.10;99.90;;;;;;5088916;28;20027;-67
2021/03/08 06:34:59;;;;;;;13.80;1.95;;;4.10;99.90;;;;;;5112860;28;20046;-67
2021/03/08 06:37:26;;;;;;;16.35;2.22;;;4.10;99.90;;;;;;5094162;28;20109;-67
2021/03/08 06:39:52;;;;;;;14.45;2.17;;;4.10;99.90;;;;;;5108562;27;20819;-67
2021/03/08 06:42:18;;;;;;;10.02;1.88;;;4.10;99.90;;;;;;5109576;27;20409;-67
2021/03/08 06:44:49;;;;;;;14.38;2.25;;;4.10;99.90;;;;;;5109852;28;20070;-67
2021/03/08 06:47:16;;;;;;;14.98;2.70;;;4.20;99.90;;;;;;5110406;27;20035;-67
2021/03/08 06:49:41;;;;;;;20.75;3.33;;;4.20;99.90;;;;;;5111451;28;20079;-67
2021/03/08 06:52:09;;;;;;;13.98;2.38;;;4.20;99.90;;;;;;5110653;28;20051;-67
2021/03/08 06:54:40;;;;;;;14.57;2.53;;;4.20;99.90;;;;;;5092976;28;20036;-67
2021/03/08 06:57:21;;;;;;;14.20;2.78;;;4.20;99.90;;;;;;5110525;27;20039;-67
2021/03/08 06:59:57;;;;;;;14.30;2.67;;;4.20;99.90;;;;;;5109658;28;20191;-66
2021/03/08 07:02:35;;;;;;;18.80;4.35;;;4.30;99.90;;;;;;5106497;28;20047;-66
2021/03/08 07:05:01;;;;;;;15.85;4.15;;;4.30;99.90;;;;;;5090087;28;20036;-66
2021/03/08 07:07:26;;;;;;;18.90;3.90;;;4.20;99.90;;;;;;5107136;27;20404;-66
2021/03/08 07:09:53;;;;;;;18.80;3.30;;;4.10;99.90;;;;;;5106910;27;20074;-67
2021/03/08 07:12:21;;;;;;;24.58;3.67;;;4.10;99.90;;;;;;5105356;27;20035;-66
2021/03/08 07:15:04;;;;;;;12.85;3.60;;;3.90;99.90;;;;;;5105446;27;20040;-66
2021/03/08 07:17:37;;;;;;;18.73;3.78;;;4.00;99.90;;;;;;5107538;27;20043;-66
2021/03/08 07:20:09;;;;;;;21.73;3.65;;;3.90;99.90;;;;;;5108046;28;20644;-66
2021/03/08 07:22:49;;;;;;;12.35;3.00;;;3.90;99.90;;;;;;5099634;27;20058;-66
2021/03/08 07:25:17;;;;;;;22.98;4.07;;;3.90;99.90;;;;;;5105036;27;20690;-66
2021/03/08 07:27:45;;;;;;;14.98;2.42;;;3.90;99.90;;;;;;5105930;27;20028;-66
2021/03/08 07:30:13;;;;;;;18.52;2.90;;;4.00;99.90;;;;;;5107343;27;20035;-66
2021/03/08 07:32:55;;;;;;;18.48;4.00;;;4.00;99.90;;;;;;5102426;27;20067;-66
2021/03/08 07:35:43;;;;;;;15.60;3.15;;;4.00;99.90;;;;;;5106621;27;20044;-66
2021/03/08 07:38:11;;;;;;;20.88;2.78;;;4.10;99.90;;;;;;5101270;27;20044;-66
2021/03/08 07:40:40;;;;;;;20.80;4.75;;;4.20;99.90;;;;;;5103589;27;20487;-66
2021/03/08 07:43:06;;;;;;;19.95;2.38;;;4.30;99.90;;;;;;5104903;28;20050;-66
2021/03/08 07:45:39;;;;;;;16.73;2.63;;;4.40;99.90;;;;;;5087506;28;20039;-66
2021/03/08 07:48:18;;;;;;;17.25;2.53;;;4.60;99.90;;;;;;5107310;27;20040;-66
2021/03/08 07:50:46;;;;;;;11.95;2.33;;;4.60;99.80;;;;;;5103507;27;20063;-66
2021/03/08 07:53:32;;;;;;;20.55;4.38;;;4.80;99.70;;;;;;5104951;27;20123;-66
2021/03/08 07:56:03;;;;;;;16.92;2.40;;;4.80;99.40;;;;;;5104885;27;20043;-66
2021/03/08 07:58:31;;;;;;;15.88;2.58;;;4.90;99.50;;;;;;5105346;27;20032;-66
2021/03/08 08:00:58;;;;;;;22.42;3.72;;;4.90;99.00;;;;;;5100943;27;20040;-66
2021/03/08 08:03:25;;;;;;;20.23;3.22;;;4.90;98.90;;;;;;5102850;27;20073;-67
2021/03/08 08:05:54;;;;;;;23.77;3.47;;;4.90;99.10;;;;;;5105581;27;20044;-66
2021/03/08 08:08:21;;;;;;;16.27;2.75;;;4.90;99.00;;;;;;5106643;27;20035;-66
2021/03/08 08:10:52;;;;;;;17.35;2.85;;;5.00;98.70;;;;;;5104962;27;20051;-66
2021/03/08 08:13:22;;;;;;;14.50;2.63;;;5.00;99.00;;;;;;5095519;27;20035;-67
2021/03/08 08:15:50;;;;;;;22.17;3.67;;;4.90;99.60;;;;;;5100720;27;20436;-67
2021/03/08 08:18:19;;;;;;;20.60;3.13;;;5.00;99.50;;;;;;5100774;27;20517;-66
2021/03/08 08:20:49;;;;;;;10.63;2.53;;;5.10;98.70;;;;;;5097977;27;20042;-67
2021/03/08 08:23:15;;;;;;;19.02;3.40;;;5.20;98.90;;;;;;5097242;27;20109;-67
2021/03/08 08:25:44;;;;;;;33.53;4.15;;;5.10;98.80;;;;;;5098641;27;20043;-67
2021/03/08 08:28:10;;;;;;;17.90;3.72;;;5.10;98.90;;;;;;5100141;27;20036;-67
2021/03/08 08:30:36;;;;;;;18.00;3.00;;;5.10;98.10;;;;;;5096362;27;20043;-66
2021/03/08 08:33:02;;;;;;;24.42;4.05;;;5.10;98.10;;;;;;5099155;27;20047;-66
2021/03/08 08:35:30;;;;;;;24.50;4.35;;;5.10;97.60;;;;;;5108148;27;20417;-66
2021/03/08 08:38:07;;;;;;;20.67;3.42;;;5.10;98.10;;;;;;5106725;28;20507;-66
2021/03/08 08:40:34;;;;;;;19.73;3.55;;;5.10;98.50;;;;;;5103163;27;20089;-66
2021/03/08 08:43:15;;;;;;;16.25;3.33;;;5.00;98.10;;;;;;5105636;27;20039;-66
2021/03/08 08:45:45;;;;;;;20.02;4.45;;;5.00;97.50;;;;;;5102303;28;20525;-66
2021/03/08 08:48:11;;;;;;;19.25;4.25;;;5.10;97.80;;;;;;5106232;27;20128;-67
2021/03/08 08:50:42;;;;;;;19.13;3.78;;;5.20;98.10;;;;;;5103562;28;20046;-67
2021/03/08 08:53:08;;;;;;;16.70;3.13;;;5.40;97.90;;;;;;5106175;28;20042;-67
2021/03/08 08:55:33;;;;;;;22.15;4.75;;;5.50;97.60;;;;;;5103835;27;20031;-67
2021/03/08 08:58:23;;;;;;;18.15;3.97;;;5.60;97.30;;;;;;5106929;28;20047;-66
2021/03/08 09:01:07;;;;;;;14.73;3.30;;;5.60;97.10;;;;;;5101279;27;20040;-66
2021/03/08 09:03:53;;;;;;;19.85;3.72;;;5.70;96.80;;;;;;5105172;27;20031;-67
2021/03/08 09:06:51;;;;;;;24.27;3.63;;;5.60;96.00;;;;;;5105511;27;20036;-67
2021/03/08 09:09:18;;;;;;;19.85;4.13;;;5.70;96.50;;;;;;5103330;27;20541;-67
2021/03/08 09:12:04;;;;;;;21.85;4.20;;;5.80;97.40;;;;;;5105912;27;20124;-67
2021/03/08 09:14:36;;;;;;;12.60;3.80;;;5.80;96.20;;;;;;5107538;27;20421;-67
2021/03/08 09:17:15;;;;;;;18.55;3.80;;;5.90;96.10;;;;;;5086057;28;20032;-67
2021/03/08 09:19:47;;;;;;;20.60;3.63;;;5.80;94.90;;;;;;5106454;27;20048;-67
2021/03/08 09:22:22;;;;;;;12.50;3.17;;;5.70;94.80;;;;;;5106604;27;20039;-67
2021/03/08 09:24:49;;;;;;;20.40;4.97;;;5.80;95.80;;;;;;5105911;27;20628;-67
2021/03/08 09:27:34;;;;;;;21.23;3.63;;;5.70;95.10;;;;;;5102414;27;20039;-67
2021/03/08 09:30:12;;;;;;;11.55;2.92;;;5.50;94.20;;;;;;5103010;28;20123;-67
2021/03/08 09:32:52;;;;;;;15.43;3.45;;;5.40;94.70;;;;;;5105734;28;20035;-67
2021/03/08 09:35:20;;;;;;;15.75;4.05;;;5.50;95.30;;;;;;5104571;28;20039;-67
2021/03/08 09:37:49;;;;;;;16.33;3.78;;;5.60;95.60;;;;;;5106313;27;20043;-67
2021/03/08 09:40:20;;;;;;;14.05;2.97;;;5.70;95.20;;;;;;5105414;27;20043;-67
2021/03/08 09:42:46;;;;;;;16.30;3.38;;;5.80;95.20;;;;;;5107511;28;20114;-67
2021/03/08 09:45:19;;;;;;;17.45;3.17;;;5.90;95.40;;;;;;5103971;27;20051;-67
2021/03/08 09:47:46;;;;;;;16.50;4.43;;;6.00;94.50;;;;;;5108856;28;20088;-67
2021/03/08 09:50:17;;;;;;;21.70;4.10;;;6.00;95.40;;;;;;5107681;28;20452;-67
2021/03/08 09:52:44;;;;;;;18.67;3.35;;;6.00;94.10;;;;;;5103047;27;20108;-67
2021/03/08 09:55:15;;;;;;;20.23;3.40;;;5.90;94.40;;;;;;5106474;28;20077;-67
2021/03/08 09:57:44;;;;;;;16.90;3.78;;;5.90;94.80;;;;;;5108466;28;20143;-67
2021/03/08 10:00:16;;;;;;;13.05;2.88;;;5.80;94.90;;;;;;5101408;27;20040;-67
2021/03/08 10:02:42;;;;;;;13.07;3.88;;;5.90;94.70;;;;;;5104682;28;20110;-67
2021/03/08 10:05:11;;;;;;;17.73;3.40;;;5.90;94.50;;;;;;5102818;27;20036;-67
2021/03/08 10:07:56;;;;;;;15.05;2.67;;;5.80;94.20;;;;;;5103791;28;21464;-67
2021/03/08 10:10:24;;;;;;;13.65;3.65;;;5.90;94.90;;;;;;5106840;28;20125;-67
2021/03/08 10:12:59;;;;;;;26.25;2.80;;;6.10;95.10;;;;;;5101192;28;20564;-67
2021/03/08 10:15:26;;;;;;;22.25;3.28;;;6.20;94.90;;;;;;5100820;28;20485;-67
2021/03/08 10:18:00;;;;;;;14.07;2.70;;;6.30;94.10;;;;;;5097618;28;20508;-67
2021/03/08 10:20:31;;;;;;;14.77;3.38;;;6.10;93.50;;;;;;5105973;28;20386;-67
2021/03/08 10:22:57;;;;;;;14.10;2.90;;;6.00;92.80;;;;;;5082552;28;20046;-67
2021/03/08 10:25:30;;;;;;;15.10;4.00;;;5.90;93.60;;;;;;5105546;28;20036;-67
2021/03/08 10:27:57;;;;;;;9.80;2.40;;;6.00;93.50;;;;;;5102530;28;20134;-67
2021/03/08 10:30:28;;;;;;;11.82;2.72;;;5.80;93.70;;;;;;5108195;28;20039;-67
2021/03/08 10:33:01;;;;;;;16.90;3.67;;;5.80;93.00;;;;;;5100305;28;20482;-67
2021/03/08 10:35:28;;;;;;;10.85;3.50;;;5.80;93.90;;;;;;5106503;28;20072;-67
2021/03/08 10:37:54;;;;;;;13.57;2.63;;;5.70;93.60;;;;;;5103683;28;20039;-67
2021/03/08 10:40:22;;;;;;;17.83;3.80;;;5.70;93.70;;;;;;5108086;28;20043;-67
2021/03/08 10:42:48;;;;;;;12.20;2.75;;;5.80;94.00;;;;;;5083344;28;20048;-67
2021/03/08 10:45:15;;;;;;;14.75;2.72;;;5.80;94.10;;;;;;5099545;28;20196;-67
2021/03/08 10:47:41;;;;;;;14.52;3.15;;;5.80;93.20;;;;;;5102160;28;20028;-67
2021/03/08 10:50:08;;;;;;;9.25;2.63;;;5.90;94.30;;;;;;5109526;27;20135;-67
2021/03/08 10:52:34;;;;;;;10.52;2.60;;;5.90;93.70;;;;;;5099220;28;20042;-67
2021/03/08 10:55:00;;;;;;;7.10;2.33;;;6.00;93.60;;;;;;5085239;28;21091;-67
2021/03/08 10:57:27;;;;;;;11.73;3.30;;;6.00;93.80;;;;;;5106113;28;20157;-67
2021/03/08 10:59:57;;;;;;;8.05;3.10;;;6.00;94.20;;;;;;5105313;28;20159;-67
2021/03/08 11:02:24;;;;;;;14.55;2.90;;;6.10;93.70;;;;;;5103586;28;20040;-67
2021/03/08 11:05:09;;;;;;;12.90;2.90;;;6.20;92.80;;;;;;5104344;28;20461;-67
2021/03/08 11:07:35;;;;;;;22.42;3.95;;;6.00;92.80;;;;;;5102398;28;20032;-67
2021/03/08 11:10:01;;;;;;;12.50;3.00;;;6.20;93.80;;;;;;5106904;28;20050;-67
2021/03/08 11:12:27;;;;;;;13.73;3.50;;;6.40;93.70;;;;;;5107037;28;20055;-67
2021/03/08 11:14:55;;;;;;;13.25;2.75;;;6.50;93.30;;;;;;5097508;28;20044;-67
2021/03/08 11:17:40;;;;;;;11.75;2.90;;;6.70;93.30;;;;;;5100309;28;20036;-67
2021/03/08 11:20:07;;;;;;;12.05;2.35;;;6.90;93.00;;;;;;5106709;28;20134;-67
2021/03/08 11:22:54;;;;;;;8.57;2.85;;;7.00;92.80;;;;;;5104351;27;20051;-67
2021/03/08 11:25:27;;;;;;;;;;;7.20;92.40;;;;;;5086417;28;20521;-67
2021/03/08 11:27:52;;;;;;;10.23;2.13;;;7.30;91.90;;;;;;5106546;28;20390;-67
2021/03/08 11:30:18;;;;;;;12.60;3.03;;;7.40;91.70;;;;;;5089133;28;20047;-67
2021/03/08 11:32:51;;;;;;;16.58;2.63;;;7.40;91.90;;;;;;5107116;27;20038;-67
2021/03/08 11:35:24;;;;;;;7.75;2.42;;;7.50;90.90;;;;;;5110472;27;20038;-67
2021/03/08 11:37:52;;;;;;;8.43;3.00;;;7.60;90.70;;;;;;5106664;27;20118;-67
2021/03/08 11:40:20;;;;;;;11.63;2.45;;;7.60;90.00;;;;;;5113259;27;20059;-67
2021/03/08 11:42:46;;;;;;;12.43;2.20;;;7.80;91.20;;;;;;5110482;27;20455;-67
2021/03/08 11:45:13;;;;;;;32.03;4.28;;;8.00;90.50;;;;;;5109800;27;20031;-67
2021/03/08 11:47:39;;;;;;;13.13;2.92;;;7.60;88.60;;;;;;5112019;28;20031;-67
2021/03/08 11:50:08;;;;;;;10.18;2.88;;;7.80;89.00;;;;;;5108621;27;20091;-67
2021/03/08 11:52:34;;;;;;;10.10;3.00;;;8.00;90.10;;;;;;5109143;27;20079;-67
2021/03/08 11:54:59;;;;;;;11.75;2.45;;;8.30;90.00;;;;;;5111937;27;20297;-67
2021/03/08 11:57:25;;;;;;;10.88;2.90;;;8.40;90.10;;;;;;5107997;27;20036;-67
2021/03/08 11:59:51;;;;;;;11.05;2.92;;;8.60;88.90;;;;;;5107921;27;20153;-67
2021/03/08 12:02:17;;;;;;;17.73;3.75;;;8.60;87.50;;;;;;5106802;27;20131;-67
2021/03/08 12:04:43;;;;;;;17.88;4.47;;;8.50;87.10;;;;;;5112416;27;20043;-67
2021/03/08 12:07:09;;;;;;;14.93;4.25;;;8.50;88.10;;;;;;5105741;27;20043;-67
2021/03/08 12:09:35;;;;;;;11.02;3.47;;;8.50;89.40;;;;;;5105893;28;20032;-67
2021/03/08 12:12:00;;;;;;;10.93;3.72;;;8.30;88.10;;;;;;5089881;28;20036;-67
2021/03/08 12:14:27;;;;;;;17.35;3.53;;;8.30;87.80;;;;;;5102125;28;20059;-67
2021/03/08 12:16:53;;;;;;;7.78;3.08;;;8.30;87.90;;;;;;5106732;28;20092;-67
2021/03/08 12:19:19;;;;;;;13.73;3.45;;;8.10;87.30;;;;;;5105027;28;20416;-67
2021/03/08 12:21:45;;;;;;;10.10;2.90;;;8.10;89.20;;;;;;5107048;27;20387;-67
2021/03/08 12:24:12;;;;;;;10.82;3.35;;;8.20;90.20;;;;;;5108441;27;20413;-67
2021/03/08 12:26:38;;;;;;;10.25;2.58;;;8.20;90.20;;;;;;5103682;28;20093;-67
2021/03/08 12:29:04;;;;;;;15.98;3.03;;;8.20;90.20;;;;;;5110570;27;20440;-67
2021/03/08 12:31:29;;;;;;;10.77;2.80;;;8.20;89.80;;;;;;5106079;27;20036;-67
2021/03/08 12:33:55;;;;;;;8.48;2.35;;;8.40;89.70;;;;;;5110481;28;20051;-66
2021/03/08 12:36:21;;;;;;;15.25;3.10;;;8.10;89.20;;;;;;5106539;28;20382;-67
2021/03/08 12:38:47;;;;;;;12.82;3.38;;;8.20;90.00;;;;;;5110682;27;20036;-67
2021/03/08 12:41:13;;;;;;;15.75;3.60;;;8.10;89.20;;;;;;5104999;27;20047;-67
2021/03/08 12:43:38;;;;;;;10.38;3.30;;;8.10;89.50;;;;;;5109906;27;20523;-67
2021/03/08 12:46:04;;;;;;;12.70;3.25;;;8.10;89.70;;;;;;5108456;27;20035;-67
2021/03/08 12:48:30;;;;;;;12.23;3.67;;;8.10;89.90;;;;;;5107712;27;20036;-67
2021/03/08 12:50:55;;;;;;;11.80;3.67;;;8.00;90.10;;;;;;5108189;28;20093;-67
2021/03/08 12:53:21;;;;;;;14.20;2.83;;;8.00;89.90;;;;;;5103654;27;20043;-67
2021/03/08 12:55:47;;;;;;;9.60;2.95;;;8.00;89.60;;;;;;5109080;28;20031;-67
2021/03/08 12:58:13;;;;;;;9.00;3.50;;;7.90;90.50;;;;;;5107258;27;20032;-67
2021/03/08 13:00:38;;;;;;;16.23;3.90;;;7.90;90.60;;;;;;5109779;27;20444;-67